createdAt,value
2018-07-23T00:00:30.809Z,46.30
2018-07-23T00:01:04.407Z,46.40
2018-07-23T00:01:37.987Z,46.40
2018-07-23T00:02:11.624Z,46.30
2018-07-23T00:02:45.180Z,46.40
2018-07-23T00:03:18.875Z,46.30
2018-07-23T00:03:52.940Z,46.30
2018-07-23T00:04:27.286Z,46.30
2018-07-23T00:05:01.347Z,46.50
2018-07-23T00:05:34.978Z,46.50
2018-07-23T00:06:08.605Z,46.60
2018-07-23T00:06:42.131Z,46.60
2018-07-23T00:07:16.360Z,46.60
2018-07-23T00:07:51.598Z,46.70
2018-07-23T00:08:25.158Z,46.70
2018-07-23T00:08:58.746Z,46.70
2018-07-23T00:09:32.315Z,46.70
2018-07-23T00:10:05.932Z,46.70
2018-07-23T00:10:39.476Z,46.70
2018-07-23T00:11:47.059Z,46.90
2018-07-23T00:12:20.656Z,46.90
2018-07-23T00:12:54.289Z,46.80
2018-07-23T00:13:28.278Z,46.80
2018-07-23T00:14:01.871Z,47.00
2018-07-23T00:14:35.400Z,47.00
2018-07-23T00:15:42.527Z,47.00
2018-07-23T00:16:16.202Z,47.00
2018-07-23T00:16:49.768Z,47.10
2018-07-23T00:17:23.346Z,47.00
2018-07-23T00:17:57.033Z,47.10
2018-07-23T00:18:31.388Z,47.10
2018-07-23T00:19:05.006Z,47.20
2018-07-23T00:19:39.318Z,47.20
2018-07-23T00:20:12.935Z,47.20
2018-07-23T00:20:46.755Z,47.30
2018-07-23T00:21:21.213Z,47.20
2018-07-23T00:21:55.506Z,47.30
2018-07-23T00:22:29.148Z,47.90
2018-07-23T00:23:02.798Z,47.20
2018-07-23T00:23:36.348Z,47.30
2018-07-23T00:24:10.641Z,47.40
2018-07-23T00:24:44.841Z,47.30
2018-07-23T00:25:18.436Z,47.40
2018-07-23T00:25:52.703Z,47.40
2018-07-23T00:26:27.732Z,47.40
2018-07-23T00:27:01.273Z,47.40
2018-07-23T00:27:34.892Z,47.40
2018-07-23T00:28:09.150Z,47.50
2018-07-23T00:28:42.747Z,47.50
2018-07-23T00:29:17.041Z,47.60
2018-07-23T00:29:51.099Z,47.60
2018-07-23T00:30:24.649Z,47.70
2018-07-23T00:30:58.832Z,47.80
2018-07-23T00:31:33.059Z,47.80
2018-07-23T00:32:06.649Z,47.80
2018-07-23T00:32:40.205Z,47.90
2018-07-23T00:33:13.730Z,47.90
2018-07-23T00:33:47.340Z,47.90
2018-07-23T00:34:21.230Z,47.90
2018-07-23T00:34:54.754Z,48.00
2018-07-23T00:35:29.415Z,47.90
2018-07-23T00:36:36.282Z,48.00
2018-07-23T00:37:09.871Z,47.90
2018-07-23T00:38:16.788Z,48.00
2018-07-23T00:38:51.046Z,47.90
2018-07-23T00:39:24.643Z,48.10
2018-07-23T00:39:58.203Z,48.00
2018-07-23T00:40:31.811Z,48.10
2018-07-23T00:41:05.360Z,48.10
2018-07-23T00:41:39.052Z,48.20
2018-07-23T00:42:12.625Z,48.20
2018-07-23T00:42:47.496Z,48.90
2018-07-23T00:43:21.116Z,48.20
2018-07-23T00:43:54.695Z,48.20
2018-07-23T00:44:28.275Z,48.20
2018-07-23T00:45:01.788Z,48.20
2018-07-23T00:45:35.816Z,48.20
2018-07-23T00:46:09.376Z,48.20
2018-07-23T00:46:43.703Z,48.90
2018-07-23T00:47:17.895Z,48.30
2018-07-23T00:47:51.557Z,48.30
2018-07-23T00:48:26.066Z,48.30
2018-07-23T00:48:59.670Z,48.30
2018-07-23T00:49:33.284Z,48.50
2018-07-23T00:50:07.362Z,48.50
2018-07-23T00:50:40.904Z,48.50
2018-07-23T00:51:14.624Z,48.50
2018-07-23T00:51:48.949Z,48.50
2018-07-23T00:52:22.551Z,48.60
2018-07-23T00:52:56.221Z,48.50
2018-07-23T00:53:30.348Z,48.80
2018-07-23T00:54:03.978Z,48.70
2018-07-23T00:54:37.792Z,48.90
2018-07-23T00:55:12.032Z,48.90
2018-07-23T00:55:45.919Z,48.80
2018-07-23T00:56:19.526Z,48.80
2018-07-23T00:56:53.103Z,48.90
2018-07-23T00:57:26.670Z,49.00
2018-07-23T00:58:00.886Z,48.90
2018-07-23T00:58:35.498Z,48.90
2018-07-23T00:59:09.178Z,48.90
2018-07-23T00:59:42.753Z,49.00
2018-07-23T01:00:16.370Z,49.00
2018-07-23T01:00:50.015Z,49.00
2018-07-23T01:01:23.638Z,49.00
2018-07-23T01:01:57.264Z,49.00
2018-07-23T01:02:30.927Z,49.00
2018-07-23T01:03:07.565Z,49.10
2018-07-23T01:03:42.614Z,49.10
2018-07-23T01:04:16.444Z,49.00
2018-07-23T01:04:50.089Z,49.00
2018-07-23T01:05:24.744Z,49.10
2018-07-23T01:05:58.360Z,49.10
2018-07-23T01:06:32.689Z,49.10
2018-07-23T01:07:07.234Z,49.10
2018-07-23T01:07:40.855Z,49.10
2018-07-23T01:08:15.155Z,49.10
2018-07-23T01:08:49.373Z,49.20
2018-07-23T01:09:22.985Z,49.30
2018-07-23T01:09:56.565Z,49.30
2018-07-23T01:10:30.889Z,49.40
2018-07-23T01:11:04.516Z,49.50
2018-07-23T01:11:38.542Z,49.50
2018-07-23T01:12:12.115Z,49.70
2018-07-23T01:12:45.683Z,49.60
2018-07-23T01:13:19.280Z,49.70
2018-07-23T01:13:52.842Z,49.60
2018-07-23T01:15:00.012Z,49.60
2018-07-23T01:15:33.604Z,49.60
2018-07-23T01:16:07.149Z,49.70
2018-07-23T01:16:40.636Z,49.70
2018-07-23T01:17:14.261Z,49.80
2018-07-23T01:17:47.867Z,49.80
2018-07-23T01:18:21.456Z,49.80
2018-07-23T01:18:55.010Z,50.00
2018-07-23T01:19:28.663Z,50.00
2018-07-23T01:20:03.232Z,50.10
2018-07-23T01:20:36.831Z,50.00
2018-07-23T01:21:10.420Z,50.00
2018-07-23T01:21:44.011Z,50.00
2018-07-23T01:22:17.617Z,50.00
2018-07-23T01:22:51.138Z,50.00
2018-07-23T01:23:24.783Z,50.10
2018-07-23T01:23:58.319Z,50.00
2018-07-23T01:25:05.059Z,50.00
2018-07-23T01:25:38.626Z,50.20
2018-07-23T01:26:12.212Z,50.20
2018-07-23T01:26:46.696Z,50.20
2018-07-23T01:27:20.647Z,50.20
2018-07-23T01:27:54.264Z,50.20
2018-07-23T01:28:27.806Z,50.20
2018-07-23T01:29:01.363Z,50.20
2018-07-23T01:29:35.264Z,50.30
2018-07-23T01:30:08.800Z,50.30
2018-07-23T01:30:43.689Z,50.30
2018-07-23T01:31:18.180Z,50.60
2018-07-23T01:31:51.682Z,50.20
2018-07-23T01:32:25.936Z,50.40
2018-07-23T01:32:59.532Z,50.30
2018-07-23T01:33:33.358Z,50.40
2018-07-23T01:34:06.940Z,50.40
2018-07-23T01:34:40.489Z,50.60
2018-07-23T01:35:14.169Z,50.70
2018-07-23T01:35:47.655Z,50.70
2018-07-23T01:36:21.229Z,50.80
2018-07-23T01:36:54.806Z,50.80
2018-07-23T01:37:29.937Z,50.80
2018-07-23T01:38:03.459Z,50.80
2018-07-23T01:38:36.982Z,50.80
2018-07-23T01:39:11.106Z,50.60
2018-07-23T01:39:44.659Z,50.60
2018-07-23T01:40:18.322Z,50.70
2018-07-23T01:40:51.850Z,50.80
2018-07-23T01:41:25.464Z,50.90
2018-07-23T01:41:59.052Z,51.00
2018-07-23T01:42:32.644Z,51.00
2018-07-23T01:43:06.244Z,50.80
2018-07-23T01:43:40.400Z,50.90
2018-07-23T01:44:13.928Z,50.90
2018-07-23T01:44:47.999Z,51.00
2018-07-23T01:45:21.542Z,51.00
2018-07-23T01:45:55.200Z,51.20
2018-07-23T01:46:28.767Z,51.00
2018-07-23T01:47:02.359Z,51.10
2018-07-23T01:47:35.927Z,51.10
2018-07-23T01:48:09.490Z,51.00
2018-07-23T01:48:43.024Z,51.10
2018-07-23T01:49:16.536Z,51.00
2018-07-23T01:49:50.084Z,51.70
2018-07-23T01:50:23.593Z,51.00
2018-07-23T01:50:57.128Z,51.00
2018-07-23T01:51:31.438Z,51.10
2018-07-23T01:52:05.768Z,51.10
2018-07-23T01:52:39.364Z,51.20
2018-07-23T01:53:12.924Z,51.10
2018-07-23T01:53:47.121Z,51.20
2018-07-23T01:54:22.125Z,51.20
2018-07-23T01:54:55.701Z,51.20
2018-07-23T01:55:29.301Z,51.20
2018-07-23T01:56:02.910Z,51.20
2018-07-23T01:56:36.569Z,51.20
2018-07-23T01:57:10.237Z,51.20
2018-07-23T01:57:43.800Z,51.90
2018-07-23T01:58:17.376Z,51.20
2018-07-23T01:58:50.968Z,51.10
2018-07-23T01:59:24.624Z,51.10
2018-07-23T01:59:58.156Z,51.10
2018-07-23T02:00:31.741Z,51.20
2018-07-23T02:01:11.020Z,51.10
2018-07-23T02:01:44.553Z,51.10
2018-07-23T02:02:18.703Z,51.30
2018-07-23T02:02:52.267Z,51.30
2018-07-23T02:03:26.408Z,51.30
2018-07-23T02:03:59.940Z,51.40
2018-07-23T02:04:36.931Z,51.40
2018-07-23T02:05:10.538Z,51.30
2018-07-23T02:05:44.175Z,51.40
2018-07-23T02:06:17.771Z,51.40
2018-07-23T02:06:51.381Z,51.40
2018-07-23T02:07:24.974Z,51.40
2018-07-23T02:07:58.547Z,51.40
2018-07-23T02:08:32.137Z,51.40
2018-07-23T02:09:09.843Z,51.40
2018-07-23T02:09:44.225Z,51.40
2018-07-23T02:10:17.840Z,51.30
2018-07-23T02:10:51.431Z,51.30
2018-07-23T02:11:25.715Z,51.30
2018-07-23T02:11:59.303Z,51.20
2018-07-23T02:12:33.556Z,51.20
2018-07-23T02:13:07.172Z,51.30
2018-07-23T02:14:14.031Z,51.30
2018-07-23T02:14:47.659Z,51.30
2018-07-23T02:15:21.922Z,51.30
2018-07-23T02:15:56.430Z,51.40
2018-07-23T02:16:29.986Z,51.30
2018-07-23T02:17:03.571Z,51.30
2018-07-23T02:17:37.137Z,51.40
2018-07-23T02:18:10.728Z,51.40
2018-07-23T02:18:44.316Z,51.40
2018-07-23T02:19:18.552Z,51.40
2018-07-23T02:19:52.755Z,51.40
2018-07-23T02:20:27.096Z,51.40
2018-07-23T02:21:35.443Z,51.50
2018-07-23T02:22:09.090Z,51.60
2018-07-23T02:23:16.533Z,51.40
2018-07-23T02:23:50.058Z,51.60
2018-07-23T02:24:23.711Z,51.50
2018-07-23T02:24:57.312Z,51.40
2018-07-23T02:25:30.957Z,51.40
2018-07-23T02:26:04.602Z,51.50
2018-07-23T02:26:38.139Z,51.50
2018-07-23T02:27:11.713Z,51.50
2018-07-23T02:27:45.268Z,51.60
2018-07-23T02:28:18.846Z,51.70
2018-07-23T02:28:52.385Z,51.70
2018-07-23T02:29:25.978Z,51.70
2018-07-23T02:29:59.514Z,51.70
2018-07-23T02:30:33.035Z,51.70
2018-07-23T02:31:08.358Z,51.70
2018-07-23T02:31:41.934Z,51.80
2018-07-23T02:32:15.521Z,51.80
2018-07-23T02:32:49.180Z,51.80
2018-07-23T02:33:22.776Z,51.80
2018-07-23T02:33:56.381Z,51.80
2018-07-23T02:34:30.442Z,51.90
2018-07-23T02:35:04.831Z,51.80
2018-07-23T02:35:38.463Z,51.90
2018-07-23T02:36:12.967Z,52.00
2018-07-23T02:36:46.594Z,52.00
2018-07-23T02:37:20.502Z,51.70
2018-07-23T02:37:54.082Z,52.10
2018-07-23T02:38:27.674Z,52.10
2018-07-23T02:39:01.215Z,52.10
2018-07-23T02:39:34.827Z,52.10
2018-07-23T02:40:08.425Z,52.00
2018-07-23T02:40:42.027Z,52.00
2018-07-23T02:41:15.900Z,51.80
2018-07-23T02:41:49.471Z,51.90
2018-07-23T02:42:23.063Z,52.00
2018-07-23T02:42:56.562Z,52.10
2018-07-23T02:43:30.186Z,52.10
2018-07-23T02:44:04.689Z,52.20
2018-07-23T02:44:39.604Z,52.20
2018-07-23T02:45:13.185Z,52.20
2018-07-23T02:45:46.751Z,52.30
2018-07-23T02:46:20.268Z,52.30
2018-07-23T02:46:53.860Z,53.00
2018-07-23T02:47:27.412Z,52.30
2018-07-23T02:48:01.833Z,52.20
2018-07-23T02:48:35.385Z,52.20
2018-07-23T02:49:09.596Z,52.20
2018-07-23T02:49:43.113Z,52.20
2018-07-23T02:50:17.375Z,52.20
2018-07-23T02:50:50.902Z,52.30
2018-07-23T02:51:25.085Z,52.30
2018-07-23T02:51:58.626Z,52.40
2018-07-23T02:52:32.780Z,52.40
2018-07-23T02:53:06.507Z,52.40
2018-07-23T02:53:40.067Z,52.50
2018-07-23T02:54:13.600Z,52.50
2018-07-23T02:54:47.268Z,52.50
2018-07-23T02:55:20.942Z,52.50
2018-07-23T02:55:54.526Z,52.60
2018-07-23T02:56:28.643Z,52.60
2018-07-23T02:57:02.321Z,52.50
2018-07-23T02:57:35.890Z,52.50
2018-07-23T02:58:09.499Z,52.60
2018-07-23T02:58:43.903Z,52.60
2018-07-23T02:59:17.835Z,52.70
2018-07-23T02:59:51.383Z,52.50
2018-07-23T03:00:25.638Z,52.70
2018-07-23T03:00:59.228Z,52.60
2018-07-23T03:01:32.835Z,52.60
2018-07-23T03:02:07.172Z,52.60
2018-07-23T03:02:40.756Z,52.50
2018-07-23T03:03:14.386Z,52.70
2018-07-23T03:03:48.009Z,52.70
2018-07-23T03:04:22.135Z,52.60
2018-07-23T03:04:55.755Z,52.60
2018-07-23T03:05:29.335Z,52.60
2018-07-23T03:06:02.876Z,52.60
2018-07-23T03:06:36.500Z,52.70
2018-07-23T03:07:10.080Z,52.70
2018-07-23T03:07:44.422Z,52.80
2018-07-23T03:08:19.194Z,52.70
2018-07-23T03:08:53.111Z,52.70
2018-07-23T03:09:26.654Z,52.60
2018-07-23T03:10:00.200Z,52.70
2018-07-23T03:10:33.747Z,52.60
2018-07-23T03:11:07.542Z,52.70
2018-07-23T03:11:42.034Z,52.70
2018-07-23T03:12:15.651Z,52.70
2018-07-23T03:12:49.226Z,52.70
2018-07-23T03:13:22.911Z,52.80
2018-07-23T03:13:56.485Z,52.90
2018-07-23T03:14:30.512Z,52.80
2018-07-23T03:15:05.014Z,52.70
2018-07-23T03:15:38.619Z,52.60
2018-07-23T03:16:12.198Z,52.60
2018-07-23T03:16:46.495Z,52.60
2018-07-23T03:17:20.099Z,52.60
2018-07-23T03:17:54.322Z,52.60
2018-07-23T03:19:01.152Z,52.80
2018-07-23T03:19:34.709Z,52.70
2018-07-23T03:20:08.431Z,52.80
2018-07-23T03:20:42.025Z,52.70
2018-07-23T03:21:16.069Z,52.70
2018-07-23T03:21:49.712Z,52.70
2018-07-23T03:22:23.241Z,52.80
2018-07-23T03:22:56.826Z,52.90
2018-07-23T03:23:30.365Z,52.70
2018-07-23T03:24:04.611Z,52.90
2018-07-23T03:24:38.185Z,52.80
2018-07-23T03:25:11.741Z,52.90
2018-07-23T03:25:45.266Z,52.90
2018-07-23T03:26:19.529Z,52.90
2018-07-23T03:26:53.142Z,52.80
2018-07-23T03:27:26.919Z,52.90
2018-07-23T03:28:01.481Z,53.00
2018-07-23T03:28:35.030Z,53.00
2018-07-23T03:29:09.783Z,53.00
2018-07-23T03:29:43.418Z,52.80
2018-07-23T03:30:16.980Z,52.80
2018-07-23T03:30:50.525Z,52.80
2018-07-23T03:31:24.122Z,52.90
2018-07-23T03:32:30.867Z,52.90
2018-07-23T03:33:04.457Z,52.70
2018-07-23T03:33:38.326Z,52.80
2018-07-23T03:34:12.021Z,52.70
2018-07-23T03:34:45.604Z,52.90
2018-07-23T03:35:19.242Z,53.00
2018-07-23T03:35:52.885Z,53.00
2018-07-23T03:36:26.444Z,53.10
2018-07-23T03:36:59.995Z,53.00
2018-07-23T03:37:33.584Z,53.00
2018-07-23T03:38:07.211Z,52.90
2018-07-23T03:38:40.917Z,53.00
2018-07-23T03:39:14.488Z,53.10
2018-07-23T03:39:48.069Z,53.20
2018-07-23T03:40:21.607Z,53.10
2018-07-23T03:40:55.198Z,53.30
2018-07-23T03:41:29.727Z,53.30
2018-07-23T03:42:03.256Z,53.20
2018-07-23T03:42:37.617Z,53.20
2018-07-23T03:43:11.371Z,53.20
2018-07-23T03:43:45.303Z,53.30
2018-07-23T03:44:18.842Z,53.20
2018-07-23T03:44:52.380Z,53.20
2018-07-23T03:46:00.298Z,53.50
2018-07-23T03:46:33.987Z,53.40
2018-07-23T03:47:08.442Z,53.30
2018-07-23T03:47:42.220Z,53.00
2018-07-23T03:48:16.040Z,53.30
2018-07-23T03:48:49.992Z,53.20
2018-07-23T03:49:23.533Z,53.20
2018-07-23T03:49:57.267Z,53.20
2018-07-23T03:50:30.975Z,53.30
2018-07-23T03:51:05.322Z,53.30
2018-07-23T03:51:38.875Z,53.30
2018-07-23T03:52:12.778Z,53.30
2018-07-23T03:52:46.458Z,53.30
2018-07-23T03:53:20.072Z,53.10
2018-07-23T03:53:53.730Z,53.20
2018-07-23T03:54:27.290Z,53.20
2018-07-23T03:55:00.927Z,53.20
2018-07-23T03:55:34.674Z,53.20
2018-07-23T03:56:08.975Z,53.10
2018-07-23T03:56:42.567Z,53.20
2018-07-23T03:57:17.581Z,53.10
2018-07-23T03:57:51.795Z,53.10
2018-07-23T03:58:25.320Z,53.10
2018-07-23T03:59:32.308Z,53.30
2018-07-23T04:00:06.225Z,53.10
2018-07-23T04:00:39.853Z,53.10
2018-07-23T04:01:14.899Z,52.90
2018-07-23T04:01:48.511Z,53.00
2018-07-23T04:02:22.101Z,53.00
2018-07-23T04:02:55.670Z,52.80
2018-07-23T04:03:29.250Z,52.80
2018-07-23T04:04:02.796Z,52.90
2018-07-23T04:04:37.024Z,52.90
2018-07-23T04:05:11.208Z,52.90
2018-07-23T04:05:44.780Z,53.00
2018-07-23T04:06:19.308Z,53.00
2018-07-23T04:06:52.851Z,52.90
2018-07-23T04:07:26.379Z,53.10
2018-07-23T04:07:59.963Z,53.00
2018-07-23T04:08:34.206Z,53.10
2018-07-23T04:09:09.000Z,53.00
2018-07-23T04:09:42.540Z,52.80
2018-07-23T04:10:16.203Z,52.90
2018-07-23T04:10:50.314Z,52.90
2018-07-23T04:11:24.693Z,53.00
2018-07-23T04:11:58.238Z,52.90
2018-07-23T04:12:31.787Z,53.10
2018-07-23T04:13:05.322Z,52.90
2018-07-23T04:13:39.460Z,53.00
2018-07-23T04:14:13.017Z,53.10
2018-07-23T04:14:46.564Z,53.70
2018-07-23T04:15:20.768Z,53.20
2018-07-23T04:15:54.536Z,53.20
2018-07-23T04:16:28.047Z,53.10
2018-07-23T04:17:01.577Z,53.10
2018-07-23T04:17:35.744Z,53.10
2018-07-23T04:18:09.225Z,52.90
2018-07-23T04:18:42.814Z,52.90
2018-07-23T04:19:16.768Z,53.10
2018-07-23T04:19:50.380Z,53.10
2018-07-23T04:20:23.940Z,53.10
2018-07-23T04:20:57.552Z,53.10
2018-07-23T04:22:04.365Z,53.20
2018-07-23T04:22:37.983Z,53.00
2018-07-23T04:23:11.555Z,53.00
2018-07-23T04:23:45.159Z,52.90
2018-07-23T04:24:18.766Z,53.00
2018-07-23T04:24:52.349Z,52.90
2018-07-23T04:25:25.988Z,53.00
2018-07-23T04:25:59.561Z,52.90
2018-07-23T04:26:33.265Z,52.90
2018-07-23T04:27:06.939Z,52.90
2018-07-23T04:27:40.638Z,52.90
2018-07-23T04:28:14.176Z,53.10
2018-07-23T04:28:47.770Z,52.90
2018-07-23T04:29:21.364Z,53.00
2018-07-23T04:30:28.572Z,53.00
2018-07-23T04:31:02.243Z,52.90
2018-07-23T04:31:35.798Z,53.00
2018-07-23T04:32:09.370Z,53.20
2018-07-23T04:32:43.025Z,53.10
2018-07-23T04:33:16.617Z,53.10
2018-07-23T04:33:50.480Z,53.00
2018-07-23T04:34:57.992Z,53.20
2018-07-23T04:35:31.698Z,53.00
2018-07-23T04:36:05.728Z,53.10
2018-07-23T04:36:39.383Z,52.70
2018-07-23T04:37:12.933Z,53.20
2018-07-23T04:37:46.503Z,53.30
2018-07-23T04:38:20.090Z,53.40
2018-07-23T04:38:54.329Z,53.40
2018-07-23T04:39:27.868Z,53.60
2018-07-23T04:40:02.150Z,53.40
2018-07-23T04:40:35.709Z,53.40
2018-07-23T04:41:10.490Z,53.30
2018-07-23T04:41:44.611Z,53.40
2018-07-23T04:42:18.164Z,53.30
2018-07-23T04:42:51.801Z,53.30
2018-07-23T04:43:26.214Z,53.30
2018-07-23T04:43:59.775Z,53.20
2018-07-23T04:44:33.316Z,53.30
2018-07-23T04:45:06.892Z,53.20
2018-07-23T04:45:40.392Z,53.40
2018-07-23T04:46:14.765Z,53.30
2018-07-23T04:46:48.352Z,53.50
2018-07-23T04:47:22.403Z,53.60
2018-07-23T04:47:56.027Z,53.40
2018-07-23T04:48:29.559Z,53.60
2018-07-23T04:49:03.206Z,53.50
2018-07-23T04:49:36.917Z,53.60
2018-07-23T04:50:11.192Z,53.30
2018-07-23T04:50:44.802Z,53.40
2018-07-23T04:51:18.354Z,53.20
2018-07-23T04:51:51.927Z,53.20
2018-07-23T04:52:25.590Z,53.30
2018-07-23T04:52:59.181Z,53.30
2018-07-23T04:53:33.175Z,53.30
2018-07-23T04:54:06.722Z,53.20
2018-07-23T04:54:40.303Z,53.10
2018-07-23T04:55:14.416Z,53.20
2018-07-23T04:55:48.077Z,53.20
2018-07-23T04:56:21.707Z,53.20
2018-07-23T04:56:55.349Z,53.10
2018-07-23T04:58:02.332Z,53.40
2018-07-23T04:58:36.057Z,53.00
2018-07-23T04:59:09.710Z,52.90
2018-07-23T04:59:44.545Z,52.90
2018-07-23T05:00:18.341Z,53.00
2018-07-23T05:00:52.276Z,52.90
2018-07-23T05:01:26.007Z,53.00
2018-07-23T05:02:00.062Z,53.00
2018-07-23T05:02:33.723Z,53.10
2018-07-23T05:03:08.094Z,53.00
2018-07-23T05:03:41.760Z,53.00
2018-07-23T05:04:16.552Z,53.00
2018-07-23T05:04:50.254Z,53.00
2018-07-23T05:05:23.943Z,52.90
2018-07-23T05:05:57.760Z,52.80
2018-07-23T05:06:32.044Z,53.00
2018-07-23T05:07:05.925Z,53.00
2018-07-23T05:07:40.417Z,53.10
2018-07-23T05:08:14.282Z,53.20
2018-07-23T05:08:48.510Z,53.40
2018-07-23T05:09:23.303Z,53.50
2018-07-23T05:09:57.482Z,53.50
2018-07-23T05:10:32.673Z,53.40
2018-07-23T05:11:06.755Z,53.60
2018-07-23T05:11:41.959Z,53.70
2018-07-23T05:12:16.345Z,53.80
2018-07-23T05:12:49.914Z,53.70
2018-07-23T05:13:24.440Z,53.50
2018-07-23T05:13:58.126Z,53.70
2018-07-23T05:14:31.739Z,53.60
2018-07-23T05:15:05.768Z,53.70
2018-07-23T05:15:39.410Z,53.40
2018-07-23T05:16:12.952Z,53.40
2018-07-23T05:16:46.549Z,53.40
2018-07-23T05:17:20.427Z,53.50
2018-07-23T05:17:54.015Z,53.60
2018-07-23T05:18:27.532Z,53.80
2018-07-23T05:19:01.145Z,53.70
2018-07-23T05:19:35.316Z,54.10
2018-07-23T05:20:08.915Z,54.10
2018-07-23T05:20:42.541Z,54.10
2018-07-23T05:21:16.895Z,54.40
2018-07-23T05:21:50.511Z,54.30
2018-07-23T05:22:58.319Z,55.40
2018-07-23T05:23:32.436Z,54.30
2018-07-23T05:24:06.043Z,54.40
2018-07-23T05:24:39.668Z,54.40
2018-07-23T05:25:13.249Z,54.30
2018-07-23T05:25:46.749Z,54.20
2018-07-23T05:26:54.369Z,54.60
2018-07-23T05:27:28.876Z,54.20
2018-07-23T05:28:02.464Z,54.20
2018-07-23T05:28:36.013Z,54.20
2018-07-23T05:29:09.583Z,54.10
2018-07-23T05:29:43.870Z,54.30
2018-07-23T05:30:17.436Z,54.20
2018-07-23T05:30:51.000Z,54.10
2018-07-23T05:31:24.560Z,54.10
2018-07-23T05:31:58.462Z,54.30
2018-07-23T05:32:32.073Z,54.50
2018-07-23T05:33:05.679Z,54.30
2018-07-23T05:33:39.258Z,54.30
2018-07-23T05:34:12.831Z,54.60
2018-07-23T05:34:46.425Z,54.40
2018-07-23T05:35:19.997Z,54.40
2018-07-23T05:36:26.787Z,54.80
2018-07-23T05:37:00.705Z,54.40
2018-07-23T05:37:34.220Z,54.50
2018-07-23T05:38:08.900Z,54.50
2018-07-23T05:38:43.153Z,54.50
2018-07-23T05:39:16.713Z,54.50
2018-07-23T05:39:50.220Z,54.50
2018-07-23T05:40:23.867Z,54.50
2018-07-23T05:40:57.981Z,54.50
2018-07-23T05:41:31.551Z,54.40
2018-07-23T05:42:05.162Z,54.40
2018-07-23T05:42:38.775Z,54.50
2018-07-23T05:43:12.539Z,54.40
2018-07-23T05:44:19.707Z,54.90
2018-07-23T05:44:53.255Z,54.40
2018-07-23T05:45:26.840Z,54.60
2018-07-23T05:46:00.359Z,54.60
2018-07-23T05:46:33.924Z,54.60
2018-07-23T05:47:07.460Z,54.90
2018-07-23T05:47:41.047Z,54.40
2018-07-23T05:48:14.656Z,54.30
2018-07-23T05:48:48.184Z,54.50
2018-07-23T05:49:22.413Z,54.40
2018-07-23T05:49:56.005Z,54.40
2018-07-23T05:50:30.785Z,54.40
2018-07-23T05:51:05.140Z,54.40
2018-07-23T05:51:39.199Z,54.50
2018-07-23T05:52:12.811Z,54.60
2018-07-23T05:52:46.422Z,54.60
2018-07-23T05:53:20.554Z,54.10
2018-07-23T05:53:54.170Z,54.00
2018-07-23T05:54:27.757Z,53.90
2018-07-23T05:55:01.367Z,53.90
2018-07-23T05:55:35.006Z,54.10
2018-07-23T05:56:08.652Z,54.00
2018-07-23T05:56:42.208Z,53.90
2018-07-23T05:57:49.293Z,54.60
2018-07-23T05:58:22.820Z,54.30
2018-07-23T05:58:56.474Z,54.40
2018-07-23T05:59:30.142Z,54.60
2018-07-23T06:00:04.701Z,54.40
2018-07-23T06:01:11.399Z,55.00
2018-07-23T06:01:45.025Z,54.70
2018-07-23T06:02:18.777Z,55.40
2018-07-23T06:02:52.378Z,54.90
2018-07-23T06:03:26.000Z,54.90
2018-07-23T06:04:00.264Z,54.80
2018-07-23T06:04:33.909Z,54.50
2018-07-23T06:05:07.851Z,54.40
2018-07-23T06:05:41.613Z,54.50
2018-07-23T06:06:15.200Z,54.40
2018-07-23T06:07:22.075Z,54.70
2018-07-23T06:07:56.510Z,54.10
2018-07-23T06:08:30.192Z,54.90
2018-07-23T06:09:03.861Z,54.20
2018-07-23T06:10:10.741Z,54.70
2018-07-23T06:10:44.384Z,53.80
2018-07-23T06:11:17.969Z,53.50
2018-07-23T06:11:52.806Z,53.10
2018-07-23T06:12:27.274Z,52.90
2018-07-23T06:13:00.960Z,53.00
2018-07-23T06:13:35.155Z,53.00
2018-07-23T06:14:08.789Z,53.40
2018-07-23T06:14:42.457Z,53.20
2018-07-23T06:15:16.554Z,53.30
2018-07-23T06:15:51.417Z,53.20
2018-07-23T06:16:24.982Z,53.20
2018-07-23T06:16:59.375Z,53.20
2018-07-23T06:17:33.011Z,53.30
2018-07-23T06:18:06.620Z,53.20
2018-07-23T06:18:40.222Z,52.90
2018-07-23T06:19:14.016Z,53.10
2018-07-23T06:19:47.601Z,53.00
2018-07-23T06:20:21.136Z,53.10
2018-07-23T06:20:56.273Z,53.20
2018-07-23T06:21:29.988Z,53.10
2018-07-23T06:22:07.213Z,53.20
2018-07-23T06:22:44.513Z,53.00
2018-07-23T06:23:18.687Z,53.30
2018-07-23T06:23:53.104Z,52.90
2018-07-23T06:24:26.700Z,53.10
2018-07-23T06:25:33.912Z,53.90
2018-07-23T06:26:09.498Z,53.50
2018-07-23T06:26:43.251Z,53.40
2018-07-23T06:27:16.852Z,53.30
2018-07-23T06:27:51.042Z,53.20
2018-07-23T06:28:24.626Z,53.20
2018-07-23T06:28:58.158Z,53.30
2018-07-23T06:29:34.777Z,53.40
2018-07-23T06:30:10.136Z,53.00
2018-07-23T06:30:44.996Z,52.80
2018-07-23T06:31:18.681Z,52.80
2018-07-23T06:31:52.269Z,53.00
2018-07-23T06:32:26.528Z,52.80
2018-07-23T06:33:00.153Z,52.60
2018-07-23T06:33:34.526Z,52.50
2018-07-23T06:34:08.180Z,52.60
2018-07-23T06:34:42.895Z,52.70
2018-07-23T06:35:17.110Z,52.60
2018-07-23T06:35:51.279Z,52.50
2018-07-23T06:36:25.809Z,52.40
2018-07-23T06:36:59.447Z,52.50
2018-07-23T06:37:34.884Z,52.60
2018-07-23T06:38:08.521Z,52.70
2018-07-23T06:38:42.136Z,52.60
2018-07-23T06:39:17.158Z,52.50
2018-07-23T06:39:50.863Z,52.40
2018-07-23T06:40:24.477Z,52.30
2018-07-23T06:40:57.999Z,52.30
2018-07-23T06:41:31.607Z,52.40
2018-07-23T06:42:05.301Z,52.10
2018-07-23T06:42:38.936Z,52.20
2018-07-23T06:43:12.630Z,52.50
2018-07-23T06:43:46.182Z,52.60
2018-07-23T06:44:53.035Z,52.70
2018-07-23T06:45:27.386Z,52.50
2018-07-23T06:46:01.020Z,51.80
2018-07-23T06:46:35.306Z,51.70
2018-07-23T06:47:08.846Z,51.60
2018-07-23T06:47:42.451Z,51.60
2018-07-23T06:48:16.079Z,51.70
2018-07-23T06:48:50.354Z,52.00
2018-07-23T06:49:23.904Z,52.00
2018-07-23T06:49:57.551Z,52.00
2018-07-23T06:50:32.931Z,52.00
2018-07-23T06:51:06.622Z,52.00
2018-07-23T06:51:41.572Z,51.70
2018-07-23T06:52:15.724Z,51.50
2018-07-23T06:52:49.255Z,51.50
2018-07-23T06:53:22.866Z,51.40
2018-07-23T06:53:56.537Z,51.40
2018-07-23T06:54:30.827Z,51.10
2018-07-23T06:55:05.764Z,51.10
2018-07-23T06:55:39.378Z,51.20
2018-07-23T06:56:12.943Z,51.00
2018-07-23T06:56:46.491Z,51.10
2018-07-23T06:57:20.115Z,51.00
2018-07-23T06:57:54.827Z,51.00
2018-07-23T06:58:29.635Z,50.80
2018-07-23T06:59:03.243Z,50.70
2018-07-23T06:59:37.970Z,50.20
2018-07-23T07:00:11.860Z,50.10
2018-07-23T07:00:45.531Z,50.20
2018-07-23T07:01:19.851Z,50.10
2018-07-23T07:01:55.850Z,50.20
2018-07-23T07:02:30.806Z,50.40
2018-07-23T07:03:04.447Z,50.20
2018-07-23T07:03:39.277Z,50.10
2018-07-23T07:04:13.194Z,49.90
2018-07-23T07:04:48.766Z,49.70
2018-07-23T07:05:23.008Z,49.50
2018-07-23T07:05:57.441Z,49.50
2018-07-23T07:06:33.621Z,49.40
2018-07-23T07:07:08.297Z,49.70
2018-07-23T07:07:43.048Z,50.10
2018-07-23T07:08:17.961Z,49.30
2018-07-23T07:08:54.086Z,49.30
2018-07-23T07:09:29.933Z,49.50
2018-07-23T07:10:05.313Z,49.50
2018-07-23T07:10:39.667Z,49.40
2018-07-23T07:11:14.681Z,49.30
2018-07-23T07:11:49.334Z,49.30
2018-07-23T07:12:25.055Z,49.40
2018-07-23T07:12:58.627Z,50.00
2018-07-23T07:13:32.835Z,49.40
2018-07-23T07:14:07.221Z,49.20
2018-07-23T07:14:40.837Z,49.30
2018-07-23T07:15:16.060Z,49.40
2018-07-23T07:15:49.667Z,49.30
2018-07-23T07:16:23.203Z,49.40
2018-07-23T07:16:57.483Z,49.40
2018-07-23T07:17:33.565Z,49.20
2018-07-23T07:18:08.659Z,49.10
2018-07-23T07:18:42.318Z,49.10
2018-07-23T07:19:16.891Z,49.10
2018-07-23T07:19:50.490Z,49.20
2018-07-23T07:20:24.134Z,49.30
2018-07-23T07:20:58.402Z,49.40
2018-07-23T07:21:32.103Z,49.40
2018-07-23T07:22:06.060Z,49.10
2018-07-23T07:22:39.598Z,49.00
2018-07-23T07:23:13.230Z,49.00
2018-07-23T07:23:46.849Z,48.90
2018-07-23T07:24:20.438Z,48.80
2018-07-23T07:24:53.963Z,48.90
2018-07-23T07:25:27.584Z,48.60
2018-07-23T07:26:01.235Z,48.60
2018-07-23T07:27:08.990Z,48.60
2018-07-23T07:27:42.602Z,48.40
2018-07-23T07:28:16.118Z,48.50
2018-07-23T07:28:49.727Z,48.70
2018-07-23T07:29:23.603Z,48.80
2018-07-23T07:29:57.900Z,48.80
2018-07-23T07:30:31.412Z,48.50
2018-07-23T07:31:05.446Z,48.30
2018-07-23T07:31:39.737Z,48.30
2018-07-23T07:32:13.388Z,48.10